CYVO

Val-D'or Airport

Val-D'or, , Canada
METAR CYVO 181600Z 18009KT 15SM BKN022 M11/M13 A2981 RMK SC7 SLP129
Observed Flight Rules
Dec-18 @ 16:00 UTC (40 minutes ago) Marginal Visual Flight Rules
Wind Visibility Clouds
180° at 9 knots 15 miles
  • Broken at 2,200' AGL
Temperatures Readings
Current -11°C / 12°F
Dewpoint -13°C / 9°F
Humidity 85%
Altimeter 29.81" Hg
Pressure 1012.9 hPa
Elevation 337
METAR CYVO 181600Z 18009KT 15SM BKN022 M11/M13 A2981 RMK SC7 SLP129
Observed Flight Rules
Dec-18 @ 16:00 UTC
(40 minutes ago)
MVFR
Wind Visibility
180° at 9 knots 15 miles
Clouds
  • Broken at 2,200' AGL
Temperature Dewpoint
-11°C / 12°F -13°C / 9°F
Humidity Altimeter Pressure
85% 29.81" Hg 1012.9 hPa